This is the latest recevied weather packets stored in our database for station/object VK6DUG. If no packets are shown the sender has not sent any weather packets the latest 10 day(s).
| Time | Temp. | Humidity | Pressure | Rain* | Wind** | Luminosity | Snow |
|---|---|---|---|---|---|---|---|
| 1777689035 | 13.89° C | 69% | 1030.2 hPa | 0 mm | - | 310 W/m² | - |
| 1777688432 | 13.89° C | 70% | 1030.2 hPa | 0 mm | - | 344 W/m² | - |
| 1777687827 | 13.89° C | 70% | 1030.2 hPa | 0 mm | - | 412 W/m² | - |
| 1777687224 | 13.33° C | 71% | 1030.2 hPa | 0 mm | - | 377 W/m² | - |
| 1777686621 | 12.22° C | 74% | 1030.3 hPa | 0 mm | - | 294 W/m² | - |
| 1777686017 | 11.67° C | 85% | 1030.3 hPa | 0 mm | - | 210 W/m² | - |
| 1777685433 | 10.56° C | 92% | 1030.4 hPa | 0 mm | - | 164 W/m² | - |
| 1777684829 | 9.44° C | 94% | 1030.3 hPa | 0 mm | - | 142 W/m² | - |
| 1777684227 | 9.44° C | 95% | 1030.2 hPa | 0 mm | - | 93 W/m² | - |
| 1777683624 | 8.89° C | 95% | 1030.3 hPa | 0 mm | - | 136 W/m² | - |
| 1777683018 | 8.33° C | 95% | 1030.3 hPa | 0 mm | - | 125 W/m² | - |
| 1777682435 | 7.78° C | 96% | 1030.3 hPa | 0 mm | - | 111 W/m² | - |
| 1777681829 | 7.78° C | 96% | 1030.3 hPa | 0 mm | - | 94 W/m² | - |
| 1777681225 | 7.22° C | 96% | 1030.1 hPa | 0 mm | - | 79 W/m² | - |
| 1777680620 | 6.67° C | 95% | 1030.1 hPa | 0 mm | - | 71 W/m² | - |
| 1777680016 | 6.11° C | 95% | 1029.9 hPa | 0 mm | - | 68 W/m² | - |
| 1777679432 | 5° C | 95% | 1029.8 hPa | 0 mm | - | 35 W/m² | - |
| 1777678830 | 5° C | 95% | 1029.8 hPa | 0 mm | - | 26 W/m² | - |
| 1777678224 | 5° C | 95% | 1029.6 hPa | 0 mm | - | 22 W/m² | - |
| 1777677620 | 5° C | 95% | 1029.5 hPa | 0 mm | - | 18 W/m² | - |
| 1777677034 | 4.44° C | 95% | 1029.5 hPa | 0 mm | - | 12 W/m² | - |
| 1777676430 | 4.44° C | 94% | 1029.3 hPa | 0 mm | - | 7 W/m² | - |
| 1777675824 | 4.44° C | 94% | 1029.1 hPa | 0 mm | - | 2 W/m² | - |
| 1777675221 | 5° C | 95% | 1029.1 hPa | 0 mm | - | 0 W/m² | - |
| 1777674617 | 4.44° C | 94% | 1028.9 hPa | 0 mm | - | 0 W/m² | - |
* Rain latest hour (hover to see other rain measurements)
** Current wind speed in m/s (hover to see current wind gust speed)